createdAt,value
2019-06-07T00:01:56.189Z,75.61
2019-06-07T00:04:26.657Z,75.57
2019-06-07T00:06:57.023Z,75.58
2019-06-07T00:09:27.507Z,75.60
2019-06-07T00:11:58.061Z,76.05
2019-06-07T00:14:28.589Z,76.19
2019-06-07T00:16:59.112Z,76.16
2019-06-07T00:19:29.606Z,76.29
2019-06-07T00:22:17.689Z,76.32
2019-06-07T00:24:32.145Z,76.38
2019-06-07T00:27:02.625Z,76.38
2019-06-07T00:29:33.024Z,76.64
2019-06-07T00:32:03.212Z,76.41
2019-06-07T00:34:33.564Z,76.51
2019-06-07T00:37:03.994Z,76.73
2019-06-07T00:39:34.466Z,76.63
2019-06-07T00:42:05.117Z,76.46
2019-06-07T00:44:35.727Z,76.55
2019-06-07T00:47:06.833Z,76.48
2019-06-07T00:49:41.474Z,76.53
2019-06-07T00:52:09.251Z,76.42
2019-06-07T00:54:39.669Z,76.59
2019-06-07T00:57:10.087Z,76.42
2019-06-07T00:59:40.417Z,76.51
2019-06-07T01:02:14.068Z,76.52
2019-06-07T01:04:42.902Z,76.71
2019-06-07T01:07:13.373Z,76.65
2019-06-07T01:09:43.836Z,76.85
2019-06-07T01:12:18.112Z,76.95
2019-06-07T01:14:46.444Z,76.94
2019-06-07T01:17:41.189Z,77.14
2019-06-07T01:19:59.288Z,77.21
2019-06-07T01:22:29.711Z,77.37
2019-06-07T01:25:00.048Z,77.31
2019-06-07T01:27:30.533Z,77.42
2019-06-07T01:30:00.882Z,77.38
2019-06-07T01:32:31.722Z,77.55
2019-06-07T01:35:02.419Z,77.87
2019-06-07T01:37:32.927Z,78.31
2019-06-07T01:40:03.476Z,78.67
2019-06-07T01:42:33.909Z,78.77
2019-06-07T01:45:04.727Z,78.91
2019-06-07T01:47:35.099Z,79.31
2019-06-07T01:50:05.790Z,79.49
2019-06-07T01:52:36.247Z,79.54
2019-06-07T01:55:07.766Z,79.62
2019-06-07T01:57:47.975Z,79.98
2019-06-07T02:00:11.728Z,80.13
2019-06-07T02:02:42.128Z,80.28
2019-06-07T02:05:13.495Z,80.50
2019-06-07T02:07:43.936Z,80.81
2019-06-07T02:10:14.778Z,80.99
2019-06-07T02:12:45.318Z,80.88
2019-06-07T02:15:16.249Z,80.79
2019-06-07T02:17:46.774Z,81.03
2019-06-07T02:20:17.860Z,81.22
2019-06-07T02:22:48.210Z,81.46
2019-06-07T02:27:50.860Z,81.39
2019-06-07T02:30:40.195Z,81.52
2019-06-07T02:32:53.992Z,81.63
2019-06-07T02:35:30.915Z,81.79
2019-06-07T02:37:56.560Z,81.96
2019-06-07T02:40:32.040Z,82.09
2019-06-07T02:42:59.072Z,82.02
2019-06-07T02:45:36.079Z,82.14
2019-06-07T02:48:01.680Z,82.17
2019-06-07T02:50:37.970Z,82.15
2019-06-07T02:53:04.248Z,82.13
2019-06-07T02:56:26.474Z,82.33
2019-06-07T02:58:07.255Z,82.46
2019-06-07T03:01:05.592Z,82.66
2019-06-07T03:03:18.543Z,83.55
2019-06-07T03:05:50.467Z,83.47
2019-06-07T03:08:20.925Z,83.34
2019-06-07T03:10:52.562Z,83.20
2019-06-07T03:13:23.448Z,83.04
2019-06-07T03:15:56.219Z,83.02
2019-06-07T03:18:43.924Z,83.09
2019-06-07T03:21:18.265Z,83.01
2019-06-07T03:23:49.106Z,83.03
2019-06-07T03:26:19.450Z,82.88
2019-06-07T03:28:49.940Z,82.74
2019-06-07T03:31:20.245Z,82.78
2019-06-07T03:33:50.687Z,82.78
2019-06-07T03:36:25.676Z,82.79
2019-06-07T03:38:53.266Z,82.69
2019-06-07T03:41:23.762Z,82.62
2019-06-07T03:43:54.127Z,82.63
2019-06-07T03:46:24.557Z,82.43
2019-06-07T03:49:07.450Z,82.45
2019-06-07T03:51:48.516Z,82.34
2019-06-07T03:54:18.880Z,82.32
2019-06-07T03:56:49.539Z,82.21
2019-06-07T03:59:19.841Z,82.00
2019-06-07T04:01:50.064Z,81.98
2019-06-07T04:04:20.310Z,81.99
2019-06-07T04:06:50.533Z,81.92
2019-06-07T04:09:21.003Z,81.81
2019-06-07T04:11:51.537Z,81.69
2019-06-07T04:14:23.414Z,81.63
2019-06-07T04:16:53.943Z,81.45
2019-06-07T04:19:24.966Z,81.34
2019-06-07T04:21:55.584Z,81.24
2019-06-07T04:24:25.885Z,81.04
2019-06-07T04:26:56.079Z,80.88
2019-06-07T04:29:47.839Z,80.73
2019-06-07T04:31:58.308Z,80.61
2019-06-07T04:34:29.269Z,80.42
2019-06-07T04:37:01.409Z,80.26
2019-06-07T04:39:35.448Z,80.01
2019-06-07T04:42:04.537Z,79.83
2019-06-07T04:44:41.056Z,79.64
2019-06-07T04:47:11.181Z,79.46
2019-06-07T04:49:44.259Z,79.21
2019-06-07T04:52:15.487Z,78.98
2019-06-07T04:54:46.113Z,78.67
2019-06-07T04:57:16.286Z,78.36
2019-06-07T05:00:22.269Z,78.22
2019-06-07T05:02:18.331Z,78.00
2019-06-07T05:04:48.567Z,77.73
2019-06-07T05:07:19.028Z,77.58
2019-06-07T05:09:49.218Z,77.47
2019-06-07T05:12:19.418Z,77.32
2019-06-07T05:14:49.587Z,77.11
2019-06-07T05:17:19.910Z,77.05
2019-06-07T05:19:50.105Z,76.90
2019-06-07T05:22:20.434Z,76.73
2019-06-07T05:24:50.706Z,76.58
2019-06-07T05:27:20.981Z,76.42
2019-06-07T05:30:08.903Z,76.27
2019-06-07T05:32:23.418Z,76.03
2019-06-07T05:34:53.722Z,75.79
2019-06-07T05:37:23.951Z,75.62
2019-06-07T05:39:54.242Z,75.49
2019-06-07T05:42:24.627Z,75.32
2019-06-07T05:44:54.851Z,75.26
2019-06-07T05:47:25.515Z,75.11
2019-06-07T05:49:55.961Z,74.84
2019-06-07T05:52:26.432Z,74.70
2019-06-07T05:54:56.612Z,74.46
2019-06-07T05:57:27.162Z,74.25
2019-06-07T05:59:57.321Z,73.15
2019-06-07T06:02:27.667Z,73.08
2019-06-07T06:04:58.006Z,72.62
2019-06-07T06:07:28.413Z,72.46
2019-06-07T06:09:58.805Z,72.14
2019-06-07T06:12:35.272Z,71.81
2019-06-07T06:15:01.040Z,71.42
2019-06-07T06:17:31.502Z,70.86
2019-06-07T06:20:01.846Z,70.54
2019-06-07T06:22:32.121Z,70.27
2019-06-07T06:25:30.766Z,69.98
2019-06-07T06:28:08.120Z,69.24
2019-06-07T06:30:09.386Z,68.98
2019-06-07T06:32:43.041Z,68.64
2019-06-07T06:35:12.101Z,68.26
2019-06-07T06:37:48.977Z,67.88
2019-06-07T06:40:14.931Z,67.46
2019-06-07T06:42:49.005Z,67.08
2019-06-07T06:45:19.511Z,66.71
2019-06-07T06:47:50.636Z,66.30
2019-06-07T06:50:21.427Z,65.75
2019-06-07T06:52:54.647Z,65.29
2019-06-07T06:55:23.891Z,64.94
2019-06-07T06:57:54.317Z,64.35
2019-06-07T07:00:53.739Z,63.93
2019-06-07T07:03:54.210Z,63.46
2019-06-07T07:05:54.580Z,63.14
2019-06-07T07:08:24.373Z,62.52
2019-06-07T07:10:55.119Z,62.08
2019-06-07T07:13:25.810Z,61.82
2019-06-07T07:15:58.417Z,61.05
2019-06-07T07:18:28.396Z,60.05
2019-06-07T07:20:58.803Z,59.55
2019-06-07T07:23:29.174Z,59.11
2019-06-07T07:26:00.266Z,58.71
2019-06-07T07:28:30.767Z,58.01
2019-06-07T07:31:01.208Z,57.51
2019-06-07T07:34:20.851Z,56.87
2019-06-07T07:36:19.109Z,56.83
2019-06-07T07:38:35.869Z,57.08
2019-06-07T07:41:14.602Z,57.05
2019-06-07T07:43:39.174Z,56.18
2019-06-07T07:46:28.419Z,55.59
2019-06-07T07:48:43.579Z,54.72
2019-06-07T07:51:14.859Z,54.15
2019-06-07T07:53:56.047Z,53.71
2019-06-07T07:56:17.303Z,53.65
2019-06-07T07:58:52.297Z,53.26
2019-06-07T08:01:19.901Z,52.49
2019-06-07T08:03:50.727Z,52.19
2019-06-07T08:06:22.544Z,51.83
2019-06-07T08:08:55.831Z,51.74
2019-06-07T08:11:25.205Z,51.65
2019-06-07T08:13:58.500Z,51.34
2019-06-07T08:16:27.877Z,50.50
2019-06-07T08:19:03.483Z,50.02
2019-06-07T08:21:30.682Z,49.61
2019-06-07T08:24:04.623Z,49.21
2019-06-07T08:26:33.122Z,48.81
2019-06-07T08:29:06.044Z,48.35
2019-06-07T08:31:36.408Z,47.92
2019-06-07T08:34:06.907Z,47.87
2019-06-07T08:36:42.522Z,47.51
2019-06-07T08:39:10.216Z,47.17
2019-06-07T08:41:53.805Z,47.42
2019-06-07T08:44:23.436Z,47.65
2019-06-07T08:46:44.956Z,47.06
2019-06-07T08:49:15.423Z,46.85
2019-06-07T08:51:45.797Z,46.59
2019-06-07T08:54:22.712Z,46.19
2019-06-07T08:56:48.344Z,45.60
2019-06-07T08:59:18.791Z,44.81
2019-06-07T09:01:49.135Z,44.78
2019-06-07T09:04:19.597Z,44.61
2019-06-07T09:09:22.087Z,43.92
2019-06-07T09:11:54.162Z,44.11
2019-06-07T09:14:24.562Z,43.98
2019-06-07T09:17:00.436Z,43.93
2019-06-07T09:19:26.995Z,44.13
2019-06-07T09:22:01.540Z,44.31
2019-06-07T09:24:29.448Z,44.20
2019-06-07T09:27:02.431Z,43.66
2019-06-07T09:29:32.604Z,43.18
2019-06-07T09:32:05.891Z,42.80
2019-06-07T09:34:35.172Z,42.36
2019-06-07T09:37:54.375Z,41.86
2019-06-07T09:39:37.781Z,41.44
2019-06-07T09:42:11.886Z,40.97
2019-06-07T09:44:40.372Z,40.88
2019-06-07T09:47:30.176Z,41.39
2019-06-07T09:49:42.897Z,41.31
2019-06-07T09:52:13.185Z,40.84
2019-06-07T09:55:05.776Z,40.01
2019-06-07T09:57:17.484Z,38.69
2019-06-07T09:59:47.698Z,37.77
2019-06-07T10:02:18.070Z,37.89
2019-06-07T10:04:48.356Z,37.60
2019-06-07T10:07:31.267Z,38.31
2019-06-07T10:10:19.824Z,38.42
2019-06-07T10:12:22.936Z,37.44
2019-06-07T10:14:53.318Z,38.10
2019-06-07T10:17:23.678Z,38.35
2019-06-07T10:19:53.984Z,37.85
2019-06-07T10:22:24.383Z,37.90
2019-06-07T10:24:54.759Z,37.87
2019-06-07T10:27:25.027Z,37.78
2019-06-07T10:29:55.338Z,37.84
2019-06-07T10:32:25.779Z,38.00
2019-06-07T10:34:56.126Z,37.46
2019-06-07T10:37:26.615Z,37.38
2019-06-07T10:39:57.055Z,37.73
2019-06-07T10:42:27.383Z,37.24
2019-06-07T10:44:57.733Z,37.17
2019-06-07T10:47:28.012Z,37.02
2019-06-07T10:49:58.414Z,36.74
2019-06-07T10:52:28.733Z,36.57
2019-06-07T10:54:59.203Z,36.94
2019-06-07T10:57:29.550Z,37.37
2019-06-07T10:59:59.945Z,37.23
2019-06-07T11:02:30.381Z,36.92
2019-06-07T11:05:00.884Z,36.77
2019-06-07T11:07:31.315Z,36.15
2019-06-07T11:10:07.073Z,35.48
2019-06-07T11:12:33.732Z,35.95
2019-06-07T11:15:04.595Z,35.46
2019-06-07T11:17:34.911Z,36.17
2019-06-07T11:20:06.118Z,35.97
2019-06-07T11:22:36.446Z,34.32
2019-06-07T11:25:09.101Z,34.59
2019-06-07T11:27:39.246Z,34.58
2019-06-07T11:30:10.511Z,34.74
2019-06-07T11:32:41.039Z,33.89
2019-06-07T11:35:13.547Z,33.89
2019-06-07T11:37:44.029Z,33.89
2019-06-07T11:40:32.019Z,34.28
2019-06-07T11:42:46.769Z,33.75
2019-06-07T11:45:18.121Z,33.71
2019-06-07T11:47:48.519Z,32.92
2019-06-07T11:50:19.224Z,32.81
2019-06-07T11:52:49.673Z,32.68
2019-06-07T11:55:20.181Z,31.47
2019-06-07T11:57:50.585Z,31.03
2019-06-07T12:00:21.367Z,30.67
2019-06-07T12:02:51.673Z,30.13
2019-06-07T12:05:21.922Z,29.60
2019-06-07T12:07:52.232Z,29.69
2019-06-07T12:10:23.290Z,29.53
2019-06-07T12:12:53.735Z,29.19
2019-06-07T12:15:24.007Z,29.11
2019-06-07T12:17:54.383Z,28.96
2019-06-07T12:20:24.854Z,29.83
2019-06-07T12:22:55.177Z,30.22
2019-06-07T12:25:25.496Z,30.22
2019-06-07T12:27:55.822Z,30.32
2019-06-07T12:30:28.034Z,29.84
2019-06-07T12:32:58.259Z,29.22
2019-06-07T12:35:28.564Z,28.84
2019-06-07T12:37:58.983Z,28.45
2019-06-07T12:40:32.254Z,28.14
2019-06-07T12:43:01.359Z,27.26
2019-06-07T12:45:44.580Z,26.21
2019-06-07T12:48:03.830Z,25.50
2019-06-07T12:50:42.419Z,26.20
2019-06-07T12:53:07.154Z,26.77
2019-06-07T12:55:37.549Z,26.81
2019-06-07T12:58:07.789Z,26.83
2019-06-07T13:00:38.171Z,27.13
2019-06-07T13:03:08.575Z,26.57
2019-06-07T13:05:38.907Z,26.40
2019-06-07T13:08:09.277Z,26.60
2019-06-07T13:10:39.628Z,26.60
2019-06-07T13:13:10.069Z,25.66
2019-06-07T13:15:40.456Z,25.34
2019-06-07T13:18:14.695Z,24.96
2019-06-07T13:20:42.853Z,24.55
2019-06-07T13:23:13.338Z,23.81
2019-06-07T13:25:46.611Z,23.18
2019-06-07T13:28:17.210Z,23.93
2019-06-07T13:30:47.847Z,22.27
2019-06-07T13:33:21.510Z,22.56
2019-06-07T13:35:52.032Z,22.39
2019-06-07T13:38:26.296Z,22.59
2019-06-07T13:40:57.509Z,22.52
2019-06-07T13:43:28.266Z,22.98
2019-06-07T13:45:58.747Z,23.59
2019-06-07T13:48:29.155Z,23.32
2019-06-07T13:50:59.533Z,24.58
2019-06-07T13:53:29.909Z,25.01
2019-06-07T13:56:00.247Z,25.02
2019-06-07T13:58:30.599Z,24.53
2019-06-07T14:01:00.971Z,23.08
2019-06-07T14:03:33.995Z,23.08
2019-06-07T14:06:03.814Z,22.18
2019-06-07T14:08:34.193Z,21.30
2019-06-07T14:11:04.652Z,20.93
2019-06-07T14:13:35.023Z,20.99
2019-06-07T14:16:05.919Z,21.26
2019-06-07T14:18:36.308Z,21.08
2019-06-07T14:21:07.058Z,21.35
2019-06-07T14:23:48.230Z,21.36
2019-06-07T14:26:09.544Z,21.11
2019-06-07T14:28:39.911Z,20.98
2019-06-07T14:31:10.287Z,20.97
2019-06-07T14:33:40.696Z,20.62
2019-06-07T14:36:11.095Z,19.73
2019-06-07T14:38:41.552Z,19.30
2019-06-07T14:41:11.909Z,20.54
2019-06-07T14:43:45.497Z,20.64
2019-06-07T14:46:15.912Z,20.59
2019-06-07T14:48:46.455Z,20.98
2019-06-07T14:51:17.005Z,21.78
2019-06-07T14:53:47.414Z,23.04
2019-06-07T14:56:17.843Z,23.77
2019-06-07T14:58:48.234Z,24.12
2019-06-07T15:01:18.551Z,24.37
2019-06-07T15:03:48.919Z,24.87
2019-06-07T15:06:19.422Z,25.34
2019-06-07T15:08:51.840Z,24.88
2019-06-07T15:11:22.237Z,25.27
2019-06-07T15:13:52.593Z,24.99
2019-06-07T15:16:22.952Z,25.46
2019-06-07T15:18:53.574Z,25.55
2019-06-07T15:21:23.969Z,26.44
2019-06-07T15:23:55.616Z,25.40
2019-06-07T15:26:26.038Z,25.06
2019-06-07T15:28:56.578Z,25.61
2019-06-07T15:31:27.875Z,26.00
2019-06-07T15:33:58.780Z,26.95
2019-06-07T15:36:30.233Z,27.68
2019-06-07T15:39:01.347Z,27.94
2019-06-07T15:41:33.106Z,28.23
2019-06-07T15:44:03.563Z,28.65
2019-06-07T15:46:33.936Z,29.37
2019-06-07T15:49:04.587Z,29.77
2019-06-07T15:51:36.479Z,30.53
2019-06-07T15:54:07.488Z,31.31
2019-06-07T15:56:39.116Z,31.91
2019-06-07T15:59:09.612Z,32.63
2019-06-07T16:01:40.023Z,32.62
2019-06-07T16:04:10.508Z,33.15
2019-06-07T16:06:43.464Z,33.30
2019-06-07T16:09:13.286Z,33.67
2019-06-07T16:11:44.286Z,33.95
2019-06-07T16:14:14.824Z,34.21
2019-06-07T16:16:45.246Z,34.77
2019-06-07T16:19:15.639Z,35.23
2019-06-07T16:21:46.027Z,35.66
2019-06-07T16:24:16.414Z,36.02
2019-06-07T16:26:46.800Z,36.40
2019-06-07T16:29:17.277Z,36.50
2019-06-07T16:31:47.678Z,36.80
2019-06-07T16:34:18.097Z,36.93
2019-06-07T16:36:48.870Z,36.84
2019-06-07T16:39:19.237Z,36.14
2019-06-07T16:41:51.042Z,34.71
2019-06-07T16:44:21.497Z,33.88
2019-06-07T16:46:51.940Z,34.19
2019-06-07T16:49:22.398Z,34.61
2019-06-07T16:51:52.696Z,35.18
2019-06-07T16:54:23.210Z,35.39
2019-06-07T16:56:53.689Z,35.99
2019-06-07T17:01:58.204Z,36.43
2019-06-07T17:04:29.006Z,36.92
2019-06-07T17:06:59.683Z,37.28
2019-06-07T17:09:30.564Z,37.54
2019-06-07T17:12:07.503Z,37.66
2019-06-07T17:14:38.406Z,37.82
2019-06-07T17:17:09.243Z,38.18
2019-06-07T17:19:40.848Z,38.56
2019-06-07T17:22:11.655Z,39.04
2019-06-07T17:24:43.311Z,39.15
2019-06-07T17:27:14.407Z,39.35
2019-06-07T17:29:45.822Z,39.51
2019-06-07T17:32:16.271Z,39.69
2019-06-07T17:34:48.080Z,39.88
2019-06-07T17:37:18.646Z,40.10
2019-06-07T17:39:49.096Z,40.92
2019-06-07T17:42:19.705Z,41.51
2019-06-07T17:44:51.342Z,42.53
2019-06-07T17:47:21.874Z,43.75
2019-06-07T17:49:52.400Z,45.51
2019-06-07T17:52:22.865Z,46.91
2019-06-07T17:55:02.521Z,48.65
2019-06-07T17:57:38.841Z,51.41
2019-06-07T18:02:44.732Z,62.03
2019-06-07T18:05:15.406Z,64.88
2019-06-07T18:07:47.781Z,67.53
2019-06-07T18:10:35.022Z,69.55
2019-06-07T18:13:05.799Z,71.14
2019-06-07T18:15:42.433Z,72.04
2019-06-07T18:18:12.974Z,72.55
2019-06-07T18:20:45.028Z,72.96
2019-06-07T18:23:16.097Z,72.95
2019-06-07T18:25:46.544Z,73.35
2019-06-07T18:28:16.928Z,74.02
2019-06-07T18:30:48.552Z,74.64
2019-06-07T18:33:19.132Z,75.21
2019-06-07T18:35:49.588Z,75.65
2019-06-07T18:38:20.215Z,75.92
2019-06-07T18:40:51.238Z,76.11
2019-06-07T18:43:21.800Z,76.48
2019-06-07T18:45:53.536Z,76.73
2019-06-07T18:48:24.003Z,77.01
2019-06-07T18:50:54.700Z,77.53
2019-06-07T18:53:25.202Z,77.98
2019-06-07T18:55:56.242Z,78.17
2019-06-07T18:58:26.700Z,78.31
2019-06-07T19:00:57.562Z,78.61
2019-06-07T19:03:28.049Z,78.86
2019-06-07T19:05:58.407Z,79.12
2019-06-07T19:08:38.646Z,79.16
2019-06-07T19:11:15.698Z,79.25
2019-06-07T19:13:46.515Z,79.20
2019-06-07T19:16:17.577Z,79.07
2019-06-07T19:18:49.465Z,79.11
2019-06-07T19:21:20.413Z,81.37
2019-06-07T19:23:51.766Z,81.03
2019-06-07T19:29:13.698Z,81.25
2019-06-07T19:31:44.836Z,80.96
2019-06-07T19:34:20.719Z,80.94
2019-06-07T19:36:51.536Z,81.05
2019-06-07T19:39:22.214Z,81.13
2019-06-07T19:41:53.920Z,81.17
2019-06-07T19:44:24.667Z,81.21
2019-06-07T19:47:00.498Z,81.41
2019-06-07T19:49:33.946Z,81.56
2019-06-07T19:52:04.667Z,81.50
2019-06-07T19:54:35.298Z,81.51
2019-06-07T19:57:07.179Z,81.44
2019-06-07T19:59:37.794Z,81.23
2019-06-07T20:02:08.619Z,81.17
2019-06-07T20:04:39.306Z,81.26
2019-06-07T20:07:10.063Z,81.33
2019-06-07T20:09:40.893Z,81.06
2019-06-07T20:12:11.644Z,81.01
2019-06-07T20:14:42.316Z,80.77
2019-06-07T20:17:12.969Z,80.66
2019-06-07T20:19:43.863Z,80.70
2019-06-07T20:22:14.570Z,80.72
2019-06-07T20:24:45.214Z,80.68
2019-06-07T20:27:20.285Z,80.78
2019-06-07T20:29:56.755Z,80.81
2019-06-07T20:32:27.902Z,80.80
2019-06-07T20:34:59.658Z,80.81
2019-06-07T20:37:30.265Z,80.84
2019-06-07T20:40:12.959Z,81.01
2019-06-07T20:42:33.462Z,81.20
2019-06-07T20:45:04.232Z,81.26
2019-06-07T20:47:34.702Z,81.41
2019-06-07T20:50:06.353Z,81.54
2019-06-07T20:52:36.920Z,82.35
2019-06-07T20:55:09.093Z,82.42
2019-06-07T20:57:40.025Z,82.36
2019-06-07T21:00:20.739Z,82.43
2019-06-07T21:02:44.448Z,82.34
2019-06-07T21:05:15.404Z,82.22
2019-06-07T21:07:46.282Z,82.04
2019-06-07T21:10:17.390Z,81.88
2019-06-07T21:12:48.116Z,81.78
2019-06-07T21:15:20.730Z,81.71
2019-06-07T21:17:51.527Z,81.64
2019-06-07T21:23:00.677Z,81.46
2019-06-07T21:25:31.115Z,81.38
2019-06-07T21:28:03.081Z,81.18
2019-06-07T21:30:33.678Z,81.01
2019-06-07T21:33:05.454Z,80.81
2019-06-07T21:35:35.974Z,80.68
2019-06-07T21:38:07.835Z,80.52
2019-06-07T21:40:38.277Z,80.34
2019-06-07T21:43:08.835Z,80.12
2019-06-07T21:45:39.198Z,79.93
2019-06-07T21:48:09.539Z,79.71
2019-06-07T21:50:39.970Z,79.50
2019-06-07T21:53:10.716Z,79.32
2019-06-07T21:55:51.692Z,78.97
2019-06-07T21:58:22.404Z,78.71
2019-06-07T22:01:23.091Z,78.41
2019-06-07T22:03:53.530Z,78.06
2019-06-07T22:06:23.861Z,77.75
2019-06-07T22:08:54.269Z,77.66
2019-06-07T22:11:24.670Z,77.44
2019-06-07T22:13:55.064Z,77.42
2019-06-07T22:16:29.301Z,77.32
2019-06-07T22:18:57.535Z,77.22
2019-06-07T22:21:28.062Z,77.16
2019-06-07T22:23:58.518Z,76.99
2019-06-07T22:26:28.953Z,76.95
2019-06-07T22:28:59.320Z,76.88
2019-06-07T22:31:31.127Z,76.63
2019-06-07T22:34:01.700Z,76.57
2019-06-07T22:36:32.144Z,76.54
2019-06-07T22:39:02.608Z,76.40
2019-06-07T22:41:32.939Z,76.48
2019-06-07T22:44:03.373Z,76.34
2019-06-07T22:46:37.620Z,76.20
2019-06-07T22:49:07.212Z,76.22
2019-06-07T22:51:37.662Z,76.07
2019-06-07T22:54:08.087Z,76.20
2019-06-07T22:57:00.648Z,76.15
2019-06-07T22:59:31.128Z,76.03
2019-06-07T23:02:01.737Z,76.10
2019-06-07T23:04:32.387Z,76.06
2019-06-07T23:07:03.135Z,76.07
2019-06-07T23:09:33.735Z,75.95
2019-06-07T23:12:04.485Z,75.92
2019-06-07T23:14:35.133Z,75.93
2019-06-07T23:17:05.666Z,75.92
2019-06-07T23:19:36.446Z,75.81
2019-06-07T23:22:07.210Z,75.72
2019-06-07T23:24:37.768Z,75.81
2019-06-07T23:27:08.437Z,75.72
2019-06-07T23:29:39.121Z,75.68
2019-06-07T23:32:10.529Z,75.65
2019-06-07T23:34:41.125Z,75.76
2019-06-07T23:37:12.994Z,75.52
2019-06-07T23:39:43.695Z,75.43
2019-06-07T23:42:15.447Z,75.37
2019-06-07T23:44:46.068Z,75.44
2019-06-07T23:47:17.720Z,75.49
2019-06-07T23:49:48.916Z,75.46
2019-06-07T23:52:19.762Z,75.45
2019-06-07T23:54:50.320Z,75.50
2019-06-07T23:57:22.546Z,75.55
2019-06-07T23:59:53.092Z,75.53
